Time;durP1;ratioP1;P1;durP2;ratioP2;P2;SDS_P1;SDS_P2;PMS_P1;PMS_P2;Temp;Humidity;BMP_temperature;BMP_pressure;BME280_temperature;BME280_humidity;BME280_pressure;Samples;Min_cycle;Max_cycle;Signal;HPM_P1;HPM_P2
2022/08/29 00:01:37;;;;;;;2.65;1.33;;;14.50;99.90;;;;;;5041220;28;20059;-81
2022/08/29 00:04:03;;;;;;;5.00;1.52;;;15.00;99.90;;;;;;5043121;28;20424;-82
2022/08/29 00:06:29;;;;;;;6.05;2.35;;;;;;;;;;5035903;28;20029;-80
2022/08/29 00:08:55;;;;;;;3.38;1.70;;;14.50;99.90;;;;;;5039469;28;20090;-81
2022/08/29 00:11:21;;;;;;;5.25;2.42;;;;;;;;;;5035327;28;20021;-80
2022/08/29 00:13:47;;;;;;;3.50;2.15;;;;;;;;;;5039369;28;20108;-82
2022/08/29 00:16:13;;;;;;;4.53;2.30;;;;;;;;;;5031810;28;20060;-80
2022/08/29 00:18:39;;;;;;;4.07;1.50;;;14.40;99.90;;;;;;5039647;28;20495;-80
2022/08/29 00:21:06;;;;;;;6.55;2.15;;;;;;;;;;5035486;28;20029;-81
2022/08/29 00:23:32;;;;;;;3.63;1.90;;;;;;;;;;5025802;28;20025;-81
2022/08/29 00:25:58;;;;;;;3.78;2.40;;;;;;;;;;5043898;28;20055;-81
2022/08/29 00:28:24;;;;;;;7.38;3.60;;;;;;;;;;5038282;28;20421;-81
2022/08/29 00:30:50;;;;;;;4.32;2.00;;;;;;;;;;5036235;28;20021;-81
2022/08/29 00:33:16;;;;;;;6.40;1.95;;;14.40;99.90;;;;;;5036501;28;20061;-81
2022/08/29 00:35:43;;;;;;;4.32;1.48;;;14.30;99.90;;;;;;5044558;28;20029;-81
2022/08/29 00:38:10;;;;;;;3.65;1.95;;;;;;;;;;5039811;28;20032;-80
2022/08/29 00:40:47;;;;;;;3.75;1.50;;;13.60;99.90;;;;;;5032395;28;20025;-80
2022/08/29 00:43:13;;;;;;;3.55;2.20;;;;;;;;;;5036963;28;20062;-81
2022/08/29 00:46:11;;;;;;;3.45;1.70;;;14.50;99.90;;;;;;5037136;28;20040;-80
2022/08/29 00:48:38;;;;;;;3.38;1.77;;;14.40;99.90;;;;;;5040596;28;20485;-81
2022/08/29 00:51:13;;;;;;;5.20;2.42;;;14.00;99.90;;;;;;5044021;28;20083;-81
2022/08/29 00:53:43;;;;;;;3.20;1.90;;;14.10;99.90;;;;;;5033931;28;20029;-81
2022/08/29 00:56:10;;;;;;;2.70;1.48;;;14.50;99.90;;;;;;5039664;28;20044;-79
2022/08/29 00:58:47;;;;;;;3.45;1.77;;;14.60;99.90;;;;;;5036940;28;20040;-80
2022/08/29 01:01:13;;;;;;;3.83;1.50;;;;;;;;;;5035621;28;20025;-81
2022/08/29 01:03:40;;;;;;;2.92;1.35;;;14.40;99.90;;;;;;5038838;28;20067;-80
2022/08/29 01:06:07;;;;;;;2.63;1.38;;;14.30;99.90;;;;;;5035105;28;20025;-80
2022/08/29 01:08:33;;;;;;;3.55;1.85;;;;;;;;;;5036510;28;20039;-81
2022/08/29 01:13:47;;;;;;;6.13;2.15;;;14.60;99.90;;;;;;5034850;28;20079;-81
2022/08/29 01:16:14;;;;;;;2.75;1.45;;;15.00;99.90;;;;;;5032761;28;20083;-80
2022/08/29 01:18:44;;;;;;;3.10;1.52;;;14.10;99.90;;;;;;5035852;28;20094;-79
2022/08/29 01:21:21;;;;;;;3.10;1.67;;;14.20;99.90;;;;;;5036631;28;20108;-80
2022/08/29 01:23:55;;;;;;;4.60;2.35;;;14.50;99.90;;;;;;5034373;28;20501;-80
2022/08/29 01:26:22;;;;;;;2.33;1.45;;;;;;;;;;5039706;28;20060;-80
2022/08/29 01:28:50;;;;;;;4.05;2.05;;;;;;;;;;5035466;28;20037;-80
2022/08/29 01:31:19;;;;;;;7.38;1.90;;;;;;;;;;5035952;28;20064;-81
2022/08/29 01:33:58;;;;;;;2.05;1.13;;;14.00;99.90;;;;;;5042056;28;20066;-82
2022/08/29 01:36:33;;;;;;;3.63;1.63;;;14.00;99.90;;;;;;5035435;28;20032;-81
2022/08/29 01:38:59;;;;;;;2.70;1.80;;;14.40;99.90;;;;;;5031665;28;20078;-81
2022/08/29 01:41:25;;;;;;;2.28;1.15;;;14.20;99.90;;;;;;5041025;28;20029;-82
2022/08/29 01:43:53;;;;;;;2.42;1.40;;;;;;;;;;5040454;28;20119;-82
2022/08/29 01:46:25;;;;;;;5.28;2.47;;;14.00;99.90;;;;;;5042413;28;20099;-80
2022/08/29 01:48:51;;;;;;;3.45;1.63;;;14.40;99.90;;;;;;5041036;28;20118;-79
2022/08/29 01:51:17;;;;;;;3.35;1.65;;;14.30;99.90;;;;;;5040513;28;20561;-81
2022/08/29 01:53:43;;;;;;;7.55;1.77;;;13.30;99.90;;;;;;5037656;28;20035;-81
2022/08/29 01:56:11;;;;;;;6.30;1.83;;;14.30;99.90;;;;;;5035404;28;20071;-80
2022/08/29 01:58:37;;;;;;;3.08;1.35;;;;;;;;;;5038592;28;20024;-81
2022/08/29 02:01:03;;;;;;;6.35;2.33;;;14.30;99.90;;;;;;5034639;28;20037;-81
2022/08/29 02:03:29;;;;;;;4.03;1.58;;;;;;;;;;5031511;28;20850;-80
2022/08/29 02:05:57;;;;;;;4.70;1.42;;;;;;;;;;5038715;28;20032;-80
2022/08/29 02:08:23;;;;;;;3.20;1.38;;;14.20;99.90;;;;;;5039397;28;20037;-81
2022/08/29 02:10:48;;;;;;;2.05;1.15;;;13.90;99.90;;;;;;5037202;28;20059;-82
2022/08/29 02:13:14;;;;;;;2.75;1.25;;;;;;;;;;5039849;28;20055;-80
2022/08/29 02:15:40;;;;;;;1.35;0.85;;;;;;;;;;5039322;28;20032;-80
2022/08/29 02:18:06;;;;;;;2.47;1.30;;;;;;;;;;5034056;28;20041;-80
2022/08/29 02:20:32;;;;;;;2.17;0.90;;;;;;;;;;5042176;28;20025;-80
2022/08/29 02:22:58;;;;;;;2.53;1.13;;;;;;;;;;5037788;28;20060;-81
2022/08/29 02:25:42;;;;;;;3.10;1.35;;;;;;;;;;5042512;28;20029;-81
2022/08/29 02:28:13;;;;;;;1.50;0.75;;;13.80;99.90;;;;;;5040861;28;20448;-81
2022/08/29 02:30:40;;;;;;;3.15;1.35;;;;;;;;;;5038916;28;20090;-81
2022/08/29 02:33:07;;;;;;;2.78;1.20;;;12.90;99.90;;;;;;5040788;28;20032;-80
2022/08/29 02:35:33;;;;;;;4.18;1.25;;;;;;;;;;5034094;28;20064;-80
2022/08/29 02:37:59;;;;;;;4.78;1.70;;;;;;;;;;5038879;28;20134;-80
2022/08/29 02:40:26;;;;;;;4.03;1.55;;;;;;;;;;5032834;28;20045;-79
2022/08/29 02:42:52;;;;;;;4.00;1.23;;;13.10;99.90;;;;;;5041647;28;20033;-80
2022/08/29 02:45:19;;;;;;;2.78;1.48;;;13.60;99.90;;;;;;5037788;28;20083;-80
2022/08/29 02:47:45;;;;;;;1.88;1.35;;;14.10;99.90;;;;;;5036456;28;20041;-80
2022/08/29 02:50:11;;;;;;;3.75;1.60;;;;;;;;;;5038307;28;20411;-81
2022/08/29 02:52:40;;;;;;;2.05;0.90;;;12.80;99.90;;;;;;5041302;28;20032;-80
2022/08/29 02:55:07;;;;;;;3.45;1.45;;;;;;;;;;5038232;28;20028;-80
2022/08/29 02:57:33;;;;;;;2.42;1.40;;;;;;;;;;5031411;28;20139;-81
2022/08/29 02:59:59;;;;;;;6.82;1.17;;;;;;;;;;5033845;28;20697;-80
2022/08/29 03:02:25;;;;;;;2.33;1.48;;;;;;;;;;5031246;28;20059;-80
2022/08/29 03:04:51;;;;;;;5.43;1.35;;;;;;;;;;5036146;28;20029;-80
2022/08/29 03:07:16;;;;;;;4.03;1.15;;;13.10;99.90;;;;;;5036786;28;20033;-81
2022/08/29 03:09:42;;;;;;;3.60;1.52;;;;;;;;;;5040872;28;20033;-81
2022/08/29 03:12:08;;;;;;;3.22;1.33;;;;;;;;;;5039477;28;20033;-81
2022/08/29 03:14:34;;;;;;;4.40;1.48;;;;;;;;;;5032857;28;20068;-81
2022/08/29 03:17:01;;;;;;;1.33;0.80;;;;;;;;;;5037557;28;20068;-81
2022/08/29 03:19:27;;;;;;;4.07;1.48;;;;;;;;;;5037737;28;20505;-81
2022/08/29 03:21:53;;;;;;;3.85;1.38;;;;;;;;;;5043452;28;20032;-81
2022/08/29 03:24:18;;;;;;;2.35;1.38;;;13.30;99.90;;;;;;5040529;28;20237;-80
2022/08/29 03:26:44;;;;;;;6.75;1.77;;;;;;;;;;5041241;28;20029;-80
2022/08/29 03:29:10;;;;;;;3.55;1.67;;;;;;;;;;5033836;28;20606;-80
2022/08/29 03:31:36;;;;;;;2.00;1.10;;;;;;;;;;5043186;28;20515;-81
2022/08/29 03:34:03;;;;;;;7.95;1.27;;;;;;;;;;5041417;28;20573;-81
2022/08/29 03:36:30;;;;;;;4.15;1.42;;;13.60;99.90;;;;;;5041144;28;20057;-82
2022/08/29 03:38:56;;;;;;;2.80;1.38;;;;;;;;;;5035776;28;20032;-80
2022/08/29 03:41:23;;;;;;;2.42;1.15;;;;;;;;;;5042157;28;20123;-81
2022/08/29 03:43:50;;;;;;;3.22;1.67;;;;;;;;;;5041250;28;20432;-80
2022/08/29 03:46:16;;;;;;;2.35;1.05;;;;;;;;;;5038926;28;20079;-80
2022/08/29 03:48:42;;;;;;;4.70;1.33;;;;;;;;;;5040685;28;20730;-80
2022/08/29 03:51:08;;;;;;;2.10;0.90;;;;;;;;;;5042360;28;20140;-80
2022/08/29 03:53:34;;;;;;;2.83;1.17;;;;;;;;;;5038423;28;20036;-80
2022/08/29 03:56:00;;;;;;;3.47;1.80;;;;;;;;;;5040559;28;20067;-82
2022/08/29 03:58:26;;;;;;;3.97;1.63;;;;;;;;;;5042908;28;20037;-82
2022/08/29 04:00:52;;;;;;;5.68;1.70;;;;;;;;;;5038772;28;20032;-82
2022/08/29 04:03:19;;;;;;;4.10;1.30;;;;;;;;;;5034100;28;20562;-80
2022/08/29 04:05:44;;;;;;;10.70;1.42;;;;;;;;;;5043151;28;20030;-80
2022/08/29 04:08:10;;;;;;;2.90;1.30;;;;;;;;;;5032687;28;20045;-80
2022/08/29 04:10:37;;;;;;;2.72;1.75;;;;;;;;;;5032960;28;20024;-80
2022/08/29 04:13:05;;;;;;;1.73;1.20;;;12.00;99.90;;;;;;5034167;28;20116;-80
2022/08/29 04:15:33;;;;;;;3.15;0.95;;;12.60;99.90;;;;;;5032371;28;20140;-80
2022/08/29 04:18:02;;;;;;;6.18;1.70;;;;;;;;;;5027719;28;20039;-81
2022/08/29 04:20:30;;;;;;;2.88;1.00;;;;;;;;;;5035944;28;20021;-80
2022/08/29 04:22:58;;;;;;;4.97;1.73;;;12.20;99.90;;;;;;5037082;28;20044;-80
2022/08/29 04:25:24;;;;;;;5.97;1.77;;;;;;;;;;5046184;28;20489;-80
2022/08/29 04:27:50;;;;;;;2.85;1.35;;;;;;;;;;5051171;28;20067;-81
2022/08/29 04:30:18;;;;;;;5.00;1.50;;;11.90;99.90;;;;;;5048934;28;20045;-80
2022/08/29 04:32:44;;;;;;;5.22;1.92;;;;;;;;;;5043656;28;20111;-81
2022/08/29 04:35:11;;;;;;;5.50;1.23;;;13.10;99.90;;;;;;5040969;28;20530;-80
2022/08/29 04:37:38;;;;;;;8.05;1.52;;;12.60;99.90;;;;;;5042191;28;20090;-80
2022/08/29 04:40:06;;;;;;;2.53;1.30;;;12.50;99.90;;;;;;5046272;28;20126;-81
2022/08/29 04:42:35;;;;;;;2.35;1.30;;;11.90;99.90;;;;;;5041568;28;20036;-80
2022/08/29 04:45:00;;;;;;;4.03;1.02;;;12.30;99.90;;;;;;5040713;28;20063;-80
2022/08/29 04:47:26;;;;;;;1.83;0.88;;;;;;;;;;5045742;28;20072;-80
2022/08/29 04:49:54;;;;;;;4.05;1.40;;;11.80;99.90;;;;;;5049804;28;20043;-80
2022/08/29 04:52:20;;;;;;;0.85;0.70;;;;;;;;;;5048107;28;20067;-80
2022/08/29 04:54:46;;;;;;;2.58;1.02;;;;;;;;;;5047671;28;20033;-80
2022/08/29 04:57:11;;;;;;;3.33;1.30;;;12.40;99.90;;;;;;5046008;28;20017;-80
2022/08/29 04:59:37;;;;;;;2.30;1.10;;;;;;;;;;5054649;28;20156;-80
2022/08/29 05:02:03;;;;;;;1.98;1.05;;;;;;;;;;5042092;28;20049;-80
2022/08/29 05:04:29;;;;;;;5.07;1.15;;;;;;;;;;5042891;28;20099;-80
2022/08/29 05:06:55;;;;;;;3.50;2.00;;;12.70;99.90;;;;;;5046401;28;20031;-80
2022/08/29 05:09:21;;;;;;;2.92;1.83;;;;;;;;;;5046187;28;20033;-80
2022/08/29 05:11:47;;;;;;;5.22;1.75;;;13.00;99.90;;;;;;5045430;28;20040;-80
2022/08/29 05:14:13;;;;;;;2.50;1.20;;;;;;;;;;5046821;28;20590;-80
2022/08/29 05:16:40;;;;;;;2.13;1.30;;;;;;;;;;5045796;28;20025;-80
2022/08/29 05:19:06;;;;;;;1.85;1.10;;;;;;;;;;5047696;28;20028;-80
2022/08/29 05:21:35;;;;;;;1.70;1.13;;;13.40;99.90;;;;;;5038445;28;20508;-80
2022/08/29 05:24:02;;;;;;;3.05;1.42;;;13.30;99.90;;;;;;5043800;28;20397;-82
2022/08/29 05:26:50;;;;;;;2.28;1.25;;;13.60;99.90;;;;;;5057518;28;20032;-80
2022/08/29 05:29:16;;;;;;;1.75;0.85;;;;;;;;;;5042452;28;20032;-81
2022/08/29 05:31:42;;;;;;;3.42;1.20;;;13.80;99.90;;;;;;5049665;28;20462;-81
2022/08/29 05:34:10;;;;;;;2.67;1.40;;;13.40;99.90;;;;;;5045357;28;20094;-80
2022/08/29 05:36:36;;;;;;;4.40;1.35;;;;;;;;;;5048945;28;20029;-80
2022/08/29 05:39:02;;;;;;;2.42;1.58;;;;;;;;;;5043353;28;20098;-80
2022/08/29 05:41:28;;;;;;;2.22;1.63;;;;;;;;;;5047072;28;20018;-81
2022/08/29 05:43:54;;;;;;;5.13;1.35;;;;;;;;;;5045381;28;20075;-81
2022/08/29 05:46:20;;;;;;;2.97;1.55;;;;;;;;;;5042861;28;20079;-80
2022/08/29 05:48:47;;;;;;;3.22;1.48;;;13.80;99.90;;;;;;5040860;28;20042;-81
2022/08/29 05:51:17;;;;;;;5.15;1.38;;;13.30;99.90;;;;;;5043893;28;20036;-80
2022/08/29 05:53:43;;;;;;;4.00;1.75;;;;;;;;;;5049191;28;20116;-79
2022/08/29 05:56:09;;;;;;;7.38;1.50;;;;;;;;;;5047139;28;20108;-79
2022/08/29 05:58:35;;;;;;;5.10;2.17;;;;;;;;;;5045328;28;20033;-80
2022/08/29 06:01:00;;;;;;;10.70;2.05;;;14.30;99.90;;;;;;5046149;28;20650;-80
2022/08/29 06:03:26;;;;;;;7.22;1.67;;;;;;;;;;5045821;28;20400;-80
2022/08/29 06:05:52;;;;;;;2.72;1.58;;;13.50;99.90;;;;;;5040120;28;20094;-80
2022/08/29 06:08:19;;;;;;;4.47;1.90;;;14.10;99.90;;;;;;5046787;28;20037;-81
2022/08/29 06:10:45;;;;;;;4.88;1.67;;;14.00;99.90;;;;;;5045547;28;20020;-80
2022/08/29 06:13:11;;;;;;;4.50;1.25;;;14.80;99.90;;;;;;5048626;28;20056;-80
2022/08/29 06:15:37;;;;;;;7.72;2.75;;;14.80;99.90;;;;;;5039862;28;20362;-80
2022/08/29 06:18:03;;;;;;;4.85;2.65;;;;;;;;;;5046152;28;20081;-80
2022/08/29 06:20:29;;;;;;;3.55;1.70;;;14.70;99.90;;;;;;5046380;28;20029;-80
2022/08/29 06:22:54;;;;;;;3.38;1.67;;;15.00;99.90;;;;;;5044705;28;20398;-81
2022/08/29 06:25:20;;;;;;;3.45;1.20;;;15.60;99.90;;;;;;5039553;28;20090;-81
2022/08/29 06:27:46;;;;;;;3.97;1.10;;;;;;;;;;5047294;28;20028;-81
2022/08/29 06:30:13;;;;;;;5.68;1.67;;;;;;;;;;5047800;28;20100;-81
2022/08/29 06:32:38;;;;;;;2.05;1.08;;;;;;;;;;5044887;28;20041;-80
2022/08/29 06:35:04;;;;;;;3.17;1.60;;;16.10;99.90;;;;;;5048515;28;20586;-81
2022/08/29 06:37:30;;;;;;;9.35;1.33;;;;;;;;;;5041460;28;20448;-80
2022/08/29 06:39:56;;;;;;;4.22;1.35;;;;;;;;;;5041852;28;20025;-80
2022/08/29 06:42:23;;;;;;;2.92;1.42;;;;;;;;;;5049133;28;20116;-80
2022/08/29 06:44:49;;;;;;;4.63;1.67;;;16.80;99.90;;;;;;5045401;28;20043;-81
2022/08/29 06:47:15;;;;;;;3.00;1.00;;;17.20;99.90;;;;;;5041348;28;20025;-81
2022/08/29 06:49:41;;;;;;;4.15;1.35;;;;;;;;;;5040934;28;20033;-81
2022/08/29 06:52:07;;;;;;;3.92;1.05;;;16.80;99.90;;;;;;5043275;28;20064;-81
2022/08/29 06:54:32;;;;;;;3.95;0.90;;;17.20;99.90;;;;;;5045142;28;20121;-81
2022/08/29 06:56:58;;;;;;;3.72;1.17;;;;;;;;;;5045828;28;20022;-80
2022/08/29 06:59:25;;;;;;;2.88;1.23;;;17.40;99.90;;;;;;5046942;28;20025;-82
2022/08/29 07:01:51;;;;;;;5.55;1.50;;;;;;;;;;5043718;28;20025;-80
2022/08/29 07:04:16;;;;;;;4.05;1.60;;;17.80;99.90;;;;;;5044404;28;21065;-81
2022/08/29 07:06:43;;;;;;;3.30;1.42;;;17.60;99.90;;;;;;5049155;28;20017;-81
2022/08/29 07:09:09;;;;;;;7.55;2.20;;;18.80;99.90;;;;;;5037152;28;20029;-80
2022/08/29 07:11:37;;;;;;;5.18;1.50;;;17.90;99.90;;;;;;5040319;28;20079;-79
2022/08/29 07:14:03;;;;;;;7.05;1.73;;;18.50;99.90;;;;;;5047497;28;20029;-81
2022/08/29 07:16:30;;;;;;;5.47;1.88;;;18.10;99.90;;;;;;5038440;28;20051;-80
2022/08/29 07:18:56;;;;;;;3.83;1.30;;;;;;;;;;5045239;28;20046;-80
2022/08/29 07:21:23;;;;;;;2.72;1.30;;;18.60;99.90;;;;;;5041003;28;20025;-80
2022/08/29 07:23:50;;;;;;;4.80;1.10;;;18.20;99.90;;;;;;5047144;28;20529;-81
2022/08/29 07:26:16;;;;;;;6.22;1.08;;;;;;;;;;5050177;28;20035;-81
2022/08/29 07:28:42;;;;;;;3.20;1.02;;;;;;;;;;5048245;28;20136;-80
2022/08/29 07:31:08;;;;;;;2.53;0.80;;;18.70;99.90;;;;;;5046870;28;20183;-81
2022/08/29 07:33:34;;;;;;;5.82;1.23;;;;;;;;;;5043415;28;20040;-81
2022/08/29 07:36:00;;;;;;;3.83;1.52;;;19.80;99.90;;;;;;5042675;28;20033;-81
2022/08/29 07:38:31;;;;;;;4.72;1.17;;;;;;;;;;5042996;28;20610;-81
2022/08/29 07:41:05;;;;;;;2.63;1.00;;;19.50;99.90;;;;;;5039057;28;20460;-81
2022/08/29 07:43:31;;;;;;;3.25;1.30;;;20.10;99.90;;;;;;5042335;28;20021;-81
2022/08/29 07:45:57;;;;;;;2.67;0.90;;;;;;;;;;5044550;28;20021;-80
2022/08/29 07:48:24;;;;;;;3.25;1.10;;;20.50;99.90;;;;;;5042574;28;20531;-81
2022/08/29 07:50:50;;;;;;;2.88;1.05;;;;;;;;;;5040222;28;20029;-81
2022/08/29 07:53:17;;;;;;;3.28;1.38;;;19.90;99.90;;;;;;5037136;28;20239;-80
2022/08/29 07:55:43;;;;;;;3.15;1.10;;;;;;;;;;5039482;28;20021;-81
2022/08/29 07:58:09;;;;;;;1.92;0.80;;;;;;;;;;5044454;28;20021;-81
2022/08/29 08:00:35;;;;;;;2.33;1.55;;;;;;;;;;5042056;28;20108;-80
2022/08/29 08:03:01;;;;;;;2.92;1.35;;;;;;;;;;5047230;28;20485;-81
2022/08/29 08:05:27;;;;;;;2.95;1.67;;;;;;;;;;5039077;28;20548;-81
2022/08/29 08:07:53;;;;;;;3.70;1.60;;;;;;;;;;5042029;28;20048;-81
2022/08/29 08:10:19;;;;;;;3.70;1.30;;;;;;;;;;5046779;28;20744;-80
2022/08/29 08:12:46;;;;;;;6.05;1.70;;;20.30;99.90;;;;;;5041826;28;20040;-82
2022/08/29 08:15:13;;;;;;;4.18;1.13;;;19.90;99.90;;;;;;5043650;28;20040;-81
2022/08/29 08:17:40;;;;;;;4.93;1.75;;;19.70;99.90;;;;;;5047276;28;20044;-81
2022/08/29 08:20:07;;;;;;;5.40;1.63;;;19.40;99.90;;;;;;5044100;28;20027;-81
2022/08/29 08:22:33;;;;;;;5.75;1.80;;;19.80;99.90;;;;;;5043355;28;20039;-81
2022/08/29 08:24:59;;;;;;;9.63;1.88;;;20.00;99.90;;;;;;5052201;28;20025;-82
2022/08/29 08:27:25;;;;;;;5.72;1.30;;;20.30;99.90;;;;;;5049448;28;20040;-80
2022/08/29 08:29:51;;;;;;;4.07;2.00;;;;;;;;;;5044259;28;20028;-80
2022/08/29 08:32:16;;;;;;;6.95;1.50;;;21.00;99.90;;;;;;5044742;28;20032;-82
2022/08/29 08:34:43;;;;;;;8.68;1.48;;;;;;;;;;5054038;28;20086;-80
2022/08/29 08:37:09;;;;;;;4.15;1.80;;;21.20;99.90;;;;;;5054592;28;20013;-81
2022/08/29 08:39:35;;;;;;;4.30;1.58;;;21.70;99.90;;;;;;5051453;28;20021;-82
2022/08/29 08:42:29;;;;;;;4.32;1.77;;;21.30;99.90;;;;;;5051466;28;20031;-79
2022/08/29 08:45:09;;;;;;;3.47;1.35;;;22.20;99.90;;;;;;5044877;28;20535;-80
2022/08/29 08:47:42;;;;;;;4.35;1.75;;;22.80;99.90;;;;;;5052405;28;20098;-80
2022/08/29 08:50:27;;;;;;;3.72;1.55;;;25.20;97.30;;;;;;5051937;28;20041;-80
2022/08/29 08:53:13;;;;;;;2.83;1.50;;;27.00;92.50;;;;;;5054191;28;20029;-80
2022/08/29 08:55:46;;;;;;;3.80;1.35;;;28.20;93.40;;;;;;5058706;28;20029;-81
2022/08/29 08:58:38;;;;;;;6.15;1.10;;;29.50;78.40;;;;;;5055574;28;20029;-80
2022/08/29 09:01:29;;;;;;;4.55;1.40;;;30.50;70.70;;;;;;5042454;28;20037;-81
2022/08/29 09:04:13;;;;;;;2.53;1.75;;;31.70;78.20;;;;;;5049762;28;20253;-80
2022/08/29 09:06:47;;;;;;;7.00;2.30;;;32.10;58.90;;;;;;5047623;28;20036;-79
2022/08/29 09:09:35;;;;;;;6.90;1.15;;;31.90;63.60;;;;;;5048112;28;20037;-81
2022/08/29 09:12:26;;;;;;;3.40;1.30;;;31.90;60.80;;;;;;5056179;28;20039;-81
2022/08/29 09:15:16;;;;;;;2.47;1.15;;;31.90;59.00;;;;;;5043844;28;20516;-82
2022/08/29 09:17:56;;;;;;;3.92;1.60;;;31.50;59.50;;;;;;5053316;28;20442;-80
2022/08/29 09:20:27;;;;;;;8.75;1.52;;;30.50;63.20;;;;;;5052698;28;20108;-80
2022/08/29 09:23:19;;;;;;;3.40;1.23;;;28.70;65.40;;;;;;5052573;28;20059;-80
2022/08/29 09:25:45;;;;;;;3.60;1.10;;;27.30;69.00;;;;;;5052293;28;20512;-80
2022/08/29 09:28:11;;;;;;;2.22;1.02;;;;;;;;;;5055022;28;20116;-81
2022/08/29 09:30:40;;;;;;;2.47;1.52;;;26.10;87.10;;;;;;5054853;28;20061;-81
2022/08/29 09:33:07;;;;;;;2.67;1.17;;;;;;;;;;5054185;28;20136;-80
2022/08/29 09:35:51;;;;;;;4.32;1.27;;;25.10;75.80;;;;;;5050249;28;20113;-80
2022/08/29 09:38:17;;;;;;;5.97;1.67;;;;;;;;;;5051551;28;20017;-82
2022/08/29 09:40:56;;;;;;;4.18;1.50;;;25.30;77.40;;;;;;5048212;28;20029;-80
2022/08/29 09:43:37;;;;;;;4.03;1.60;;;25.20;76.80;;;;;;5051682;28;20162;-82
2022/08/29 09:46:06;;;;;;;2.72;1.40;;;25.00;77.90;;;;;;5051918;28;20040;-81
2022/08/29 09:48:33;;;;;;;5.53;1.48;;;25.10;78.50;;;;;;5048499;28;20040;-80
2022/08/29 09:51:23;;;;;;;3.42;1.42;;;25.10;75.90;;;;;;5050580;28;20057;-81
2022/08/29 09:53:51;;;;;;;5.50;1.85;;;25.30;85.20;;;;;;5049759;28;20032;-81
2022/08/29 09:56:27;;;;;;;3.00;1.58;;;25.30;77.70;;;;;;5054238;28;20029;-80
2022/08/29 09:59:26;;;;;;;11.77;1.98;;;25.40;79.70;;;;;;5041987;28;20029;-80
2022/08/29 10:02:25;;;;;;;3.60;1.70;;;25.80;76.10;;;;;;5049453;28;20037;-81
2022/08/29 10:04:58;;;;;;;2.95;1.80;;;25.70;76.60;;;;;;5048592;28;20062;-81
2022/08/29 10:07:32;;;;;;;4.22;1.70;;;25.30;75.40;;;;;;5044946;28;20021;-80
2022/08/29 10:09:59;;;;;;;5.45;1.13;;;;;;;;;;5047035;28;20041;-81
2022/08/29 10:12:53;;;;;;;6.25;1.90;;;26.00;73.70;;;;;;5047075;28;20034;-80
2022/08/29 10:15:30;;;;;;;3.33;1.48;;;25.70;72.00;;;;;;5045585;28;20025;-81
2022/08/29 10:18:41;;;;;;;3.03;1.50;;;25.60;74.30;;;;;;5049210;28;20078;-80
2022/08/29 10:21:33;;;;;;;2.25;1.38;;;25.60;71.50;;;;;;5040422;28;20034;-81
2022/08/29 10:24:31;;;;;;;6.03;1.83;;;25.70;83.10;;;;;;5030598;28;20029;-80
2022/08/29 10:27:19;;;;;;;3.25;1.20;;;25.60;71.90;;;;;;5051035;28;20025;-81
2022/08/29 10:30:03;;;;;;;3.88;1.45;;;26.50;72.40;;;;;;5041347;28;20501;-82
2022/08/29 10:32:46;;;;;;;4.80;1.08;;;25.70;82.70;;;;;;5045117;28;20029;-81
2022/08/29 10:35:45;;;;;;;2.63;1.25;;;25.70;71.50;;;;;;5044049;28;20100;-80
2022/08/29 10:38:31;;;;;;;2.28;1.08;;;25.70;70.70;;;;;;5044541;28;20515;-80
2022/08/29 10:41:00;;;;;;;6.38;1.20;;;26.00;75.00;;;;;;5047059;28;20056;-81
2022/08/29 10:43:46;;;;;;;3.95;1.23;;;26.40;65.90;;;;;;5046209;28;20610;-81
2022/08/29 10:46:21;;;;;;;2.38;1.10;;;26.80;66.60;;;;;;5054625;28;20021;-81
2022/08/29 10:49:06;;;;;;;2.38;0.90;;;26.10;64.50;;;;;;5047370;28;20071;-81
2022/08/29 10:51:52;;;;;;;1.95;1.08;;;26.90;63.80;;;;;;5048259;28;20397;-82
2022/08/29 10:54:28;;;;;;;4.15;0.88;;;26.50;63.10;;;;;;5056015;28;20028;-81
2022/08/29 10:56:54;;;;;;;2.05;0.88;;;27.00;61.60;;;;;;5055876;28;20067;-81
2022/08/29 11:00:01;;;;;;;4.95;0.90;;;27.10;63.60;;;;;;5049640;28;20032;-80
2022/08/29 11:02:42;;;;;;;2.50;0.90;;;26.10;60.80;;;;;;5045882;28;20120;-80
2022/08/29 11:05:18;;;;;;;1.75;0.95;;;26.10;63.10;;;;;;5036979;28;20036;-80
2022/08/29 11:07:51;;;;;;;4.20;1.25;;;26.50;62.90;;;;;;5047818;28;20071;-80
2022/08/29 11:10:28;;;;;;;3.70;1.30;;;26.60;64.30;;;;;;5043241;28;20049;-80
2022/08/29 11:12:58;;;;;;;3.70;1.30;;;26.20;76.00;;;;;;5039024;28;20124;-81
2022/08/29 11:15:55;;;;;;;3.13;1.17;;;26.60;61.20;;;;;;5044857;28;20091;-81
2022/08/29 11:18:48;;;;;;;5.70;1.58;;;26.70;73.90;;;;;;5048328;28;20049;-81
2022/08/29 11:21:14;;;;;;;1.92;1.10;;;;;;;;;;5038982;28;20052;-81
2022/08/29 11:23:43;;;;;;;2.85;1.20;;;26.40;60.80;;;;;;5046850;28;20025;-82
2022/08/29 11:26:19;;;;;;;2.05;1.20;;;26.80;62.90;;;;;;5050286;28;20025;-80
2022/08/29 11:28:50;;;;;;;3.80;1.52;;;26.30;74.60;;;;;;5050758;28;20064;-81
2022/08/29 11:31:56;;;;;;;2.60;0.90;;;27.10;62.00;;;;;;5050362;28;20107;-81
2022/08/29 11:34:40;;;;;;;1.92;1.02;;;26.20;64.20;;;;;;5047423;28;20029;-84
2022/08/29 11:37:29;;;;;;;4.20;1.50;;;26.80;61.40;;;;;;5042689;28;20533;-82
2022/08/29 11:39:56;;;;;;;2.88;1.20;;;;;;;;;;5041760;28;20053;-83
2022/08/29 11:42:26;;;;;;;3.75;1.13;;;26.30;61.70;;;;;;5052695;28;20108;-82
2022/08/29 11:44:54;;;;;;;2.25;0.90;;;27.10;63.40;;;;;;5059572;28;20024;-82
2022/08/29 11:47:54;;;;;;;6.30;1.00;;;26.60;67.30;;;;;;5047800;28;20029;-80
2022/08/29 11:50:35;;;;;;;2.60;0.98;;;26.40;61.10;;;;;;5051738;28;20041;-81
2022/08/29 11:53:07;;;;;;;4.05;0.93;;;26.70;63.20;;;;;;5047848;28;20033;-80
2022/08/29 11:55:38;;;;;;;3.57;1.07;;;26.60;61.20;;;;;;5051364;28;20040;-82
2022/08/29 11:58:27;;;;;;;4.38;0.98;;;26.30;75.60;;;;;;5049560;28;20029;-83
2022/08/29 12:00:55;;;;;;;2.10;0.75;;;26.70;61.90;;;;;;5054790;28;20040;-81
2022/08/29 12:03:33;;;;;;;2.45;1.20;;;26.90;61.60;;;;;;5053576;28;20470;-82
2022/08/29 12:06:09;;;;;;;2.20;1.20;;;26.70;61.20;;;;;;5043476;28;20139;-82
2022/08/29 12:08:40;;;;;;;4.80;1.10;;;26.60;73.10;;;;;;5043784;28;20041;-81
2022/08/29 12:11:06;;;;;;;4.20;1.02;;;;;;;;;;5048197;28;20036;-81
2022/08/29 12:13:47;;;;;;;2.60;1.13;;;26.50;72.00;;;;;;5050759;28;20060;-82
2022/08/29 12:16:25;;;;;;;3.53;1.52;;;26.50;59.80;;;;;;5048012;28;20091;-81
2022/08/29 12:18:56;;;;;;;1.80;1.20;;;27.20;61.00;;;;;;5051956;28;20025;-81
2022/08/29 12:21:36;;;;;;;5.10;1.35;;;26.50;62.00;;;;;;5063003;28;20161;-81
2022/08/29 12:24:04;;;;;;;1.45;0.65;;;26.70;61.20;;;;;;5061707;28;20111;-80
2022/08/29 12:26:40;;;;;;;2.20;0.93;;;26.40;75.40;;;;;;5050688;28;20036;-82
2022/08/29 12:29:15;;;;;;;2.65;1.10;;;26.60;67.90;;;;;;5059697;28;20071;-82
2022/08/29 12:32:03;;;;;;;2.38;0.95;;;27.20;61.30;;;;;;5064819;28;20028;-80
2022/08/29 12:34:43;;;;;;;2.65;1.33;;;27.00;63.20;;;;;;5053808;28;20013;-84
2022/08/29 12:37:30;;;;;;;2.97;1.20;;;27.00;59.90;;;;;;5050886;28;20029;-82
2022/08/29 12:39:56;;;;;;;2.88;0.95;;;;;;;;;;5042831;28;20104;-81
2022/08/29 12:42:32;;;;;;;3.40;0.88;;;28.20;71.50;;;;;;5051451;28;20030;-81
2022/08/29 12:45:12;;;;;;;2.42;1.33;;;27.30;57.10;;;;;;5049712;28;20064;-82
2022/08/29 12:47:46;;;;;;;4.35;1.33;;;28.00;70.50;;;;;;5050152;28;20021;-83
2022/08/29 12:50:23;;;;;;;1.70;1.02;;;27.80;59.40;;;;;;5056429;28;20033;-82
2022/08/29 12:53:14;;;;;;;2.83;1.10;;;26.80;59.30;;;;;;5054367;28;20487;-82
2022/08/29 12:55:44;;;;;;;1.85;0.75;;;27.50;68.90;;;;;;5050356;28;20266;-81
2022/08/29 12:58:12;;;;;;;2.38;1.02;;;26.80;67.10;;;;;;5049533;28;20029;-81
2022/08/29 13:00:38;;;;;;;2.30;1.02;;;27.10;71.90;;;;;;5047977;28;20028;-83
2022/08/29 13:03:07;;;;;;;2.00;1.00;;;27.00;58.20;;;;;;5046235;28;20156;-82
2022/08/29 13:05:35;;;;;;;9.80;1.45;;;27.00;57.20;;;;;;5045924;28;20057;-81
2022/08/29 13:08:06;;;;;;;4.80;1.20;;;27.60;57.80;;;;;;5048932;28;20029;-81
2022/08/29 13:10:34;;;;;;;1.50;1.00;;;27.60;58.20;;;;;;5043724;28;20155;-82
2022/08/29 13:13:14;;;;;;;2.28;1.15;;;27.10;59.60;;;;;;5051462;28;20032;-83
2022/08/29 13:15:40;;;;;;;2.20;1.08;;;26.50;69.50;;;;;;5046927;28;20040;-82
2022/08/29 13:18:07;;;;;;;1.95;0.93;;;27.00;58.00;;;;;;5045389;28;20025;-82
2022/08/29 13:20:58;;;;;;;2.65;1.00;;;27.10;58.70;;;;;;5046176;28;20021;-82
2022/08/29 13:23:28;;;;;;;3.72;0.80;;;28.00;61.90;;;;;;5043599;28;20162;-83
2022/08/29 13:25:54;;;;;;;3.75;1.10;;;;;;;;;;5047813;28;20425;-82
2022/08/29 13:28:20;;;;;;;2.33;1.00;;;28.10;69.10;;;;;;5048848;28;20051;-82
2022/08/29 13:31:04;;;;;;;1.35;0.73;;;27.50;57.90;;;;;;5041698;28;20032;-81
2022/08/29 13:33:30;;;;;;;3.20;0.90;;;26.20;56.50;;;;;;5039363;28;20037;-81
2022/08/29 13:35:55;;;;;;;4.40;1.00;;;27.40;70.50;;;;;;5049480;28;20032;-82
2022/08/29 13:38:24;;;;;;;3.25;1.17;;;28.40;59.10;;;;;;5050129;28;20091;-81
2022/08/29 13:40:53;;;;;;;1.67;0.70;;;27.40;68.50;;;;;;5045970;28;20103;-82
2022/08/29 13:43:36;;;;;;;2.55;1.25;;;27.50;55.10;;;;;;5043473;28;20472;-83
2022/08/29 13:46:26;;;;;;;1.50;0.73;;;27.80;68.00;;;;;;5043290;28;20561;-83
2022/08/29 13:49:02;;;;;;;3.70;1.40;;;27.90;58.10;;;;;;5043356;28;20037;-83